Terminal Aerodrome Forecast
Issued by NWS Sioux Falls, SD

Home | Current Version | Previous Version | Graphics & Text | Print | Product List | Glossary On
Versions: 1 2 3 4 5 6 7 8 9 10 11 12 13 14 15 16 17 18 19 20 21 22 23 24
000
FTUS43 KFSD 061350 AAD
TAFFSD
TAF AMD
KFSD 061350Z 0614/0712 35012G18KT P6SM BKN009
      TEMPO 0614/0615 -RA SCT009 BKN020
     FM061500 36014G20KT 5SM FU BKN035
     FM061700 36017G24KT 6SM FU SCT030 SCT120
     FM070100 36007KT P6SM SKC=

USA.gov is the U.S. government's official web portal to all federal, state and local government web resources and services.